Date,TemperatureHighF,TemperatureAvgF,TemperatureLowF,DewpointHighF,DewpointAvgF,DewpointLowF,HumidityHigh,HumidityAvg,HumidityLow,PressureMaxIn,PressureMinIn,WindSpeedMaxMPH,WindSpeedAvgMPH,GustSpeedMaxMPH,PrecipitationSumIn
2013-1-1,41.9,39.3,32.2,30.6,26.8,16.9,65,61,53,29.99,29.79,17,5,17,0.00
2013-1-2,36.1,32.2,28.0,19.6,16.7,13.5,56,52,49,30.11,29.97,19,5,19,0.00
2013-1-3,37.8,35.2,31.8,21.3,20.0,18.3,58,54,50,30.17,30.04,10,3,10,0.00
2013-1-4,39.9,37.7,34.9,25.0,23.4,21.3,60,56,53,30.07,29.92,19,5,19,0.00
2013-1-5,44.4,40.0,35.8,27.4,24.4,20.8,59,54,49,30.26,29.98,14,3,14,0.00
2013-1-6,46.8,42.6,39.0,34.4,30.8,26.6,72,63,57,30.22,29.94,14,3,14,0.00
2013-1-7,48.0,43.9,40.1,33.0,29.2,26.6,63,56,49,30.38,30.02,12,3,12,0.00
2013-1-8,50.2,44.8,39.7,35.0,31.8,26.7,66,60,55,30.43,30.33,14,3,14,0.00
2013-1-9,51.4,45.8,41.7,41.0,35.1,30.8,71,66,62,30.38,30.11,11,2,11,0.00
2013-1-10,49.6,46.6,43.3,30.6,28.9,27.9,56,50,46,30.53,30.37,14,4,14,0.00
2013-1-11,48.6,45.7,42.6,43.7,34.8,27.4,85,66,52,30.53,30.06,21,2,21,0.00
2013-1-12,50.4,47.9,46.2,46.3,43.7,42.3,87,85,83,30.16,30.02,12,2,12,0.00
2013-1-13,50.4,47.6,45.3,47.2,43.8,41.6,90,87,83,30.15,29.98,18,3,18,0.00
2013-1-14,56.8,51.4,44.1,53.3,45.6,36.8,91,81,68,30.27,29.89,13,3,13,0.00
2013-1-15,44.2,41.6,40.1,37.1,33.1,30.4,78,72,64,30.32,30.19,14,4,14,0.00
2013-1-16,41.5,39.8,38.1,36.7,34.3,31.9,85,81,71,30.20,29.75,21,3,21,0.00
2013-1-17,45.1,42.2,40.1,35.1,32.6,29.0,81,69,61,30.07,29.88,16,4,16,0.00
2013-1-18,40.3,34.1,31.3,29.0,19.2,14.9,64,54,47,30.48,29.97,14,5,14,0.00
2013-1-19,52.9,42.6,32.7,36.8,27.9,16.1,66,56,49,30.40,29.92,24,9,24,0.00
2013-1-20,54.3,46.4,36.9,36.2,28.7,16.7,62,51,36,30.02,29.66,22,7,22,0.00
2013-1-21,37.9,36.1,32.5,24.9,18.9,14.5,63,50,44,30.08,29.80,15,3,15,0.00
2013-1-22,32.5,25.6,18.9,20.2,8.9,0.0,60,49,42,30.18,29.79,21,7,21,0.00
2013-1-23,19.6,18.8,18.1,2.2,0.6,-0.3,47,44,43,30.22,30.16,17,5,17,0.00
2013-1-25,30.4,27.7,21.6,16.5,11.8,5.2,63,51,43,30.40,30.04,8,2,8,0.00
2013-1-26,29.8,25.3,21.9,15.4,12.5,9.2,63,58,52,30.36,30.01,21,4,21,0.00
2013-1-27,36.7,30.2,23.5,18.3,15.1,9.6,61,53,47,30.51,30.35,11,3,11,0.00
2013-1-28,38.1,35.2,31.6,33.0,26.4,17.0,83,71,54,30.48,29.98,93,5,93,0.00
2013-1-29,50.7,43.6,37.9,43.1,37.2,32.9,82,78,69,30.16,29.97,10,2,10,0.00
2013-1-30,52.3,49.1,45.7,49.7,45.6,39.6,92,88,79,30.07,29.38,32,8,32,0.00
2013-1-31,55.4,45.3,33.1,53.4,34.9,16.4,93,68,46,29.76,29.02,29,12,29,0.00
2013-2-1,34.3,32.4,28.6,18.6,16.5,14.7,56,52,46,30.21,29.76,21,7,21,0.00
2013-2-2,34.3,29.5,26.2,17.6,13.7,11.7,56,52,44,30.29,30.10,15,5,15,0.00
2013-2-6,41.5,38.0,33.4,29.4,23.5,14.2,73,56,45,30.34,30.03,13,5,13,0.00
2013-2-7,37.6,35.3,33.1,23.5,18.0,13.9,60,49,41,30.51,30.31,11,3,11,0.00
2013-2-8,36.7,35.1,30.2,31.8,28.7,23.7,85,77,60,30.31,29.55,93,10,93,0.00
2013-2-9,32.7,29.4,25.5,26.2,22.0,14.6,86,74,62,30.31,29.68,21,8,21,0.00
2013-2-10,37.9,30.3,23.5,27.8,19.3,13.4,72,63,55,30.48,30.30,8,2,8,0.00
2013-2-11,46.2,42.6,36.0,43.2,37.8,27.8,90,83,69,30.33,29.63,21,3,21,0.00
2013-2-12,46.8,42.2,39.0,40.3,31.9,28.3,87,67,57,29.94,29.69,18,5,18,0.00
2013-2-13,48.4,41.5,37.0,32.1,29.4,27.5,70,62,51,29.93,29.66,10,2,10,0.00
2013-2-14,49.8,42.1,37.2,35.1,32.0,29.7,77,68,51,29.99,29.66,14,4,14,0.00
2013-2-15,55.0,45.0,38.8,41.1,35.6,30.9,75,70,57,30.01,29.89,13,3,13,0.00
2013-2-16,46.0,39.7,34.3,36.9,29.4,21.1,76,67,58,29.94,29.68,17,6,17,0.00
2013-2-17,37.4,31.3,22.8,21.1,12.4,4.2,59,46,38,29.96,29.61,25,10,25,0.00
2013-2-18,40.1,30.5,21.9,18.3,11.4,5.0,50,45,37,30.23,29.96,24,6,24,0.00
2013-2-19,46.6,42.0,36.1,41.1,32.4,18.1,87,70,47,30.20,29.64,93,8,93,0.00
2013-2-20,39.9,34.1,29.1,30.9,19.2,13.3,70,54,46,29.95,29.67,24,8,24,0.00
2013-2-21,38.8,31.9,27.7,19.7,15.8,13.1,56,51,45,30.26,29.94,24,8,24,0.00
2013-2-22,42.6,37.6,29.8,31.1,24.9,16.4,68,60,52,30.39,30.23,12,4,12,0.00
2013-2-23,45.0,41.6,39.4,41.0,36.0,30.7,86,80,68,30.26,29.76,17,5,17,0.00
2013-2-24,47.3,41.4,36.7,40.3,34.2,25.6,86,76,62,29.93,29.69,19,6,19,0.00
2013-2-25,50.5,42.2,35.8,34.5,29.4,25.1,67,60,51,30.21,29.93,11,3,11,0.00
2013-2-26,46.2,42.5,39.0,34.8,32.6,30.0,82,68,61,30.28,29.87,24,8,24,0.00
2013-2-27,50.2,45.8,39.0,46.4,41.2,34.0,90,84,74,29.86,29.45,26,8,26,0.00
2013-2-28,55.4,47.5,43.5,43.0,37.7,32.1,78,69,60,29.60,29.50,11,2,11,0.00
2013-3-1,46.9,43.4,39.9,35.0,31.9,28.4,70,64,58,29.73,29.56,13,4,13,0.00
2013-3-2,44.8,40.4,36.7,30.0,27.7,25.8,71,61,54,29.74,29.65,11,4,11,0.00
2013-3-3,44.8,37.5,33.4,28.2,24.1,19.9,72,59,48,29.72,29.61,15,5,15,0.00
2013-3-4,46.9,37.6,31.6,27.6,22.0,18.0,60,53,45,29.87,29.71,22,8,22,0.00
2013-3-5,53.2,42.7,34.3,33.7,27.3,20.9,61,55,45,29.99,29.86,14,4,14,0.00
2013-3-6,44.8,41.6,38.3,34.9,31.9,29.7,74,68,61,29.97,29.79,34,11,34,0.00
2013-3-7,40.6,37.6,35.4,32.9,31.1,29.2,83,77,73,30.04,29.86,25,10,25,0.00
2013-3-8,39.4,36.3,33.6,34.3,31.2,29.5,86,82,69,30.14,29.95,16,4,16,0.00
2013-3-9,56.5,45.0,35.4,36.4,31.1,26.2,70,59,43,30.31,30.12,20,5,20,0.00
2013-3-10,53.8,43.9,39.9,38.0,33.2,29.8,74,66,55,30.38,30.29,11,3,11,0.00
2013-3-11,54.7,47.7,41.9,45.1,40.6,34.2,86,77,69,30.32,30.08,15,4,15,0.00
2013-3-12,51.4,49.4,45.1,49.0,46.1,40.4,92,88,83,30.09,29.64,24,8,24,0.00
2013-3-13,50.5,45.3,41.4,40.4,35.6,29.9,85,70,50,29.86,29.75,17,4,17,0.00
2013-3-14,44.4,38.5,33.8,29.9,21.4,15.7,63,50,40,29.92,29.80,26,8,26,0.00
2013-3-15,47.1,40.4,34.0,31.8,23.3,15.9,59,50,44,29.95,29.68,14,5,14,0.00
2013-3-16,44.4,41.5,39.6,31.0,27.3,24.6,59,57,55,29.83,29.74,13,3,13,0.00
2013-3-19,45.7,42.5,39.0,39.2,36.3,31.6,86,79,72,29.78,29.64,17,4,17,0.00
2013-3-20,52.3,42.1,34.9,31.6,26.1,22.9,72,54,41,29.86,29.76,22,6,22,0.00
2013-3-21,44.1,38.4,35.2,28.1,25.6,19.8,67,60,51,29.81,29.60,15,4,15,0.00
2013-3-22,46.6,39.0,34.2,26.4,22.1,18.5,58,51,44,29.85,29.69,16,5,16,0.00
2013-3-23,49.8,42.4,37.8,28.4,24.4,20.9,56,49,40,29.90,29.78,20,6,20,0.00
2013-3-24,53.8,44.1,38.7,31.1,25.8,20.9,54,49,40,29.92,29.68,18,3,18,0.00
2013-3-25,44.2,41.7,39.7,34.6,31.1,28.0,77,67,54,29.69,29.42,25,4,25,0.00
2013-3-26,51.4,47.2,40.3,37.7,32.8,30.7,77,58,49,29.82,29.54,12,3,12,0.00
2013-3-27,57.9,47.8,40.3,36.2,30.6,27.0,60,52,40,29.94,29.82,18,4,18,0.00
2013-3-28,57.6,48.2,43.0,38.6,32.5,29.7,61,55,47,30.07,29.92,18,5,18,0.00
2013-3-29,59.9,51.0,45.3,37.9,32.2,29.2,57,49,38,30.12,30.01,16,4,16,0.00
2013-3-30,65.5,52.0,45.5,37.5,33.1,30.0,61,49,34,30.14,30.04,22,3,22,0.00
2013-3-31,53.8,48.5,44.4,43.6,36.9,31.4,84,65,55,30.11,29.63,18,4,18,0.00
2013-4-1,64.6,51.5,42.6,48.9,40.9,22.6,83,68,44,29.87,29.58,23,5,23,0.00
2013-4-2,52.9,43.7,38.8,26.7,21.3,17.6,49,41,34,30.06,29.87,22,6,22,0.00
2013-4-3,55.9,44.1,37.8,26.0,18.6,14.8,43,36,30,30.26,30.05,24,7,24,0.00
2013-4-4,58.6,44.5,38.8,32.3,24.5,15.3,67,46,32,30.37,30.08,20,6,20,0.00
2013-4-5,67.8,52.7,43.0,38.6,31.5,21.8,67,47,28,30.08,29.66,22,5,22,0.00
2013-4-6,61.2,46.8,39.9,29.4,22.8,18.2,54,40,25,30.31,29.95,22,6,22,0.00
2013-4-7,58.5,48.8,44.2,42.5,36.4,28.8,80,63,53,30.30,29.99,25,8,25,0.00
2013-4-8,76.1,57.9,47.3,52.0,44.8,40.0,81,63,40,30.05,29.95,14,3,14,0.00
2013-4-9,84.4,67.4,53.4,55.9,47.8,43.7,75,53,29,29.99,29.87,18,4,18,0.00
2013-4-10,80.2,64.0,56.3,57.0,49.0,45.3,83,59,41,29.95,29.78,17,4,17,0.00
2013-4-11,61.0,55.4,48.0,53.8,48.8,39.7,85,78,70,30.02,29.73,18,5,18,0.00
2013-4-12,48.7,44.9,42.1,42.1,39.7,37.1,87,82,70,30.01,29.66,25,9,25,0.00
2013-4-13,61.2,49.1,42.6,45.0,40.5,38.2,86,73,51,29.96,29.69,15,4,15,0.00
2013-4-14,65.7,55.2,49.1,44.4,40.0,32.0,80,59,41,30.20,29.94,18,4,18,0.00
2013-4-15,61.9,53.1,49.3,39.3,35.0,31.9,64,51,39,30.37,30.20,16,3,16,0.00
2013-4-16,67.1,55.2,50.5,52.0,46.0,38.7,84,72,58,30.36,30.10,25,6,25,0.00
2013-4-17,75.4,61.8,53.2,53.0,48.3,42.4,85,64,38,30.28,30.08,17,3,17,0.00
2013-4-18,57.9,55.3,53.4,50.2,44.7,42.4,86,68,58,30.34,30.08,23,5,23,0.00
2013-4-19,63.7,57.2,52.9,58.1,53.6,49.1,92,88,80,30.08,29.63,26,10,26,0.00
2013-4-20,60.1,55.0,50.5,56.5,42.1,31.0,92,64,44,30.26,29.65,20,6,20,0.00
2013-4-21,63.9,50.2,41.9,37.9,30.7,24.1,57,47,35,30.62,30.26,20,5,20,0.00
2013-4-22,61.2,50.9,45.5,39.2,34.2,30.8,62,53,42,30.64,30.46,24,7,24,0.00
2013-4-23,52.9,48.2,45.0,42.2,37.4,32.2,70,66,58,30.47,30.07,24,7,24,0.00
2013-4-24,66.9,53.4,47.3,49.2,43.3,38.5,87,69,50,30.08,29.83,24,6,24,0.00
2013-4-25,71.4,60.0,49.3,41.1,37.2,33.8,60,44,30,30.25,30.10,17,5,17,0.00
2013-4-26,76.6,60.4,51.4,46.1,39.6,35.3,64,48,29,30.38,30.24,15,3,15,0.00
2013-4-27,75.7,60.0,51.6,41.9,37.5,33.6,57,45,26,30.41,30.28,13,4,13,0.00
2013-4-28,72.3,58.9,53.2,47.7,41.4,35.6,68,53,34,30.30,30.20,17,3,17,0.00
2013-4-29,57.4,55.6,54.0,48.9,46.5,44.1,77,71,62,30.23,30.17,9,3,9,0.00
2013-4-30,71.4,59.6,53.8,50.9,41.1,31.0,75,53,31,30.32,30.18,17,4,17,0.00
2013-5-1,73.8,59.7,52.2,49.9,41.7,35.7,60,52,36,30.46,30.30,15,3,15,0.00
2013-5-2,75.6,60.9,52.7,51.9,44.7,41.4,68,56,40,30.46,30.31,12,2,12,0.00
2013-5-3,72.3,58.7,53.4,47.9,42.9,37.6,69,56,40,30.44,30.35,13,4,13,0.00
2013-5-4,73.2,58.0,51.8,51.3,43.8,40.0,70,60,42,30.35,30.24,14,3,14,0.00
2013-5-5,70.3,56.0,50.4,48.2,42.0,38.5,67,60,45,30.28,30.20,15,4,15,0.00
2013-5-6,66.7,58.0,51.6,52.1,46.5,42.2,71,66,58,30.25,30.13,11,2,11,0.00
2013-5-7,75.9,63.0,55.0,61.4,53.1,45.7,78,70,60,30.15,30.06,10,3,10,0.00
2013-5-8,63.5,61.0,57.9,59.4,56.1,52.1,89,84,78,30.09,29.96,15,3,15,0.00
2013-5-9,67.3,61.2,57.9,60.6,56.0,53.1,88,83,73,29.99,29.85,11,2,11,0.00
2013-5-10,82.9,66.6,58.8,62.5,56.5,53.3,84,72,46,29.97,29.86,17,3,17,0.00
2013-5-11,64.2,61.9,60.1,60.0,57.8,55.1,91,86,77,29.88,29.67,23,4,23,0.00
2013-5-12,72.3,62.3,54.3,59.5,49.3,33.8,91,65,39,29.90,29.62,21,4,21,0.00
2013-5-13,64.2,55.2,50.9,39.8,35.5,32.6,55,48,39,30.07,29.90,15,4,15,0.00
2013-5-14,69.3,56.2,48.4,42.4,37.8,33.6,61,51,35,30.10,30.00,16,3,16,0.00
2013-5-15,64.0,58.9,53.8,54.8,48.6,41.1,79,69,59,30.05,29.66,17,4,17,0.00
2013-5-16,78.6,66.4,61.0,57.0,53.4,46.5,80,65,42,29.79,29.67,18,2,18,0.00
2013-5-17,75.4,67.2,61.5,53.0,48.2,45.6,67,51,41,30.18,29.79,16,2,16,0.00
2013-5-18,66.4,62.8,60.4,53.7,51.2,47.6,73,66,55,30.29,30.17,6,1,6,0.00
2013-5-19,60.3,59.2,57.9,53.0,51.4,48.7,83,76,66,30.28,30.25,7,2,7,0.00
2013-5-21,88.0,74.3,65.5,72.3,65.8,61.2,89,75,59,29.94,29.82,17,4,17,0.00
2013-5-22,73.2,67.8,61.5,66.7,62.1,56.3,85,82,78,29.92,29.82,11,2,11,0.00
2013-5-23,77.2,66.5,62.8,67.5,61.9,59.6,90,85,70,29.89,29.74,24,6,24,0.00
2013-5-24,67.3,59.6,50.5,64.2,55.6,45.2,91,87,81,29.89,29.64,17,4,17,0.00
2013-5-25,53.8,50.7,48.2,47.9,44.9,41.1,88,81,68,29.96,29.84,24,6,24,0.00
2013-5-26,69.6,58.3,49.3,48.0,43.4,40.1,71,59,45,30.17,29.92,18,5,18,0.00
2013-5-27,78.6,63.0,55.0,50.1,45.8,42.0,66,55,33,30.22,30.10,21,3,21,0.00
2013-5-28,69.1,62.0,59.7,55.8,52.5,48.7,84,71,53,30.21,30.10,9,1,9,0.00
2013-5-29,75.4,67.0,60.6,66.6,60.3,55.5,87,79,71,30.10,29.98,11,2,11,0.00
2013-5-30,94.5,76.3,65.8,72.8,65.1,59.9,86,70,48,30.10,30.02,16,3,16,0.00
2013-5-31,96.6,78.2,70.3,74.9,66.0,61.2,79,67,48,30.10,29.96,20,3,20,0.00
2013-6-1,94.3,76.7,70.0,73.3,65.3,61.6,77,69,49,30.00,29.88,22,4,22,0.00
2013-6-2,87.3,72.7,67.3,68.9,63.2,60.4,81,73,54,29.91,29.76,24,4,24,0.00
2013-6-3,75.0,70.2,67.3,70.3,65.3,62.3,89,85,78,29.84,29.77,10,2,10,0.00
2013-6-4,82.2,69.0,61.2,62.5,53.9,48.9,80,60,43,30.07,29.83,12,3,12,0.00
2013-6-5,81.5,68.7,63.0,55.1,50.6,45.9,68,53,37,30.18,30.07,8,2,8,0.00
2013-6-6,73.8,66.7,63.3,58.5,56.8,52.3,81,71,52,30.12,29.98,11,2,11,0.00
2013-6-7,64.2,62.5,61.0,61.4,59.1,57.4,91,89,81,29.99,29.57,17,4,17,0.00
2013-6-8,75.9,66.5,58.8,66.6,61.1,55.9,91,83,72,30.01,29.51,20,4,20,0.00
2013-6-9,83.8,72.0,65.1,67.1,61.6,58.5,85,71,51,30.14,30.01,17,2,17,0.00
2013-6-10,70.2,67.3,64.0,64.2,62.5,61.0,92,85,76,30.13,29.80,13,2,13,0.00
2013-6-11,82.6,72.4,65.8,70.3,65.5,61.0,93,80,62,29.81,29.57,23,5,23,0.00
2013-6-12,82.9,72.7,66.4,62.5,58.8,54.6,74,62,49,29.81,29.66,16,4,16,0.00
2013-6-13,70.5,65.7,58.1,60.3,58.7,54.2,88,78,66,29.81,29.42,25,4,25,0.00
2013-6-14,69.6,61.8,55.8,58.6,54.8,51.6,88,78,64,29.84,29.45,22,5,22,0.00
2013-6-15,84.6,71.1,63.1,62.1,58.2,56.0,79,65,44,29.97,29.84,17,2,17,0.00
2013-6-16,82.8,73.3,66.9,66.0,62.2,58.4,76,69,52,29.95,29.73,15,3,15,0.00
2013-6-17,91.9,76.8,71.8,72.3,66.4,62.8,78,71,52,29.89,29.81,16,3,16,0.00
2013-6-18,87.4,74.5,69.3,71.8,66.3,63.8,84,76,58,29.87,29.79,11,2,11,0.00
2013-6-19,84.9,70.6,64.2,63.8,58.1,53.5,83,66,44,30.14,29.83,24,4,24,0.00
2013-6-20,88.0,71.7,64.6,65.2,57.8,54.2,73,62,45,30.25,30.13,18,3,18,0.00
2013-7-4,92.8,80.9,73.9,79.4,73.5,70.5,91,79,64,30.23,30.14,17,5,17,0.00
2013-7-5,97.0,81.5,75.7,80.1,72.9,70.1,85,76,57,30.20,30.07,23,3,23,0.00
2013-7-6,97.9,84.8,78.6,79.0,73.5,71.1,82,70,53,30.12,29.99,17,4,17,0.00
2013-7-7,96.1,85.5,81.1,78.2,73.9,70.4,75,69,56,30.04,29.91,13,3,13,0.00
2013-7-8,95.5,83.1,77.5,74.8,69.9,67.2,73,65,50,30.02,29.94,17,4,17,0.00
2013-7-9,93.7,82.1,77.5,74.8,70.5,67.3,74,68,52,30.05,29.97,12,3,12,0.00
2013-7-10,92.1,80.4,75.9,78.3,72.0,68.7,81,76,64,30.00,29.79,13,3,15,0.00
2013-7-11,83.5,79.5,76.8,72.7,70.9,68.4,82,75,65,29.89,29.78,8,2,8,0.00
2013-7-12,78.6,75.6,70.9,69.6,67.3,64.9,87,76,68,30.07,29.89,21,4,21,0.00
2013-7-13,89.8,77.8,70.7,78.0,72.1,66.6,90,83,67,30.25,30.06,10,2,10,0.00
2013-7-14,93.2,81.7,75.7,78.2,73.4,70.9,86,77,58,30.30,30.21,21,3,21,0.00
2013-7-15,101.8,87.0,79.5,79.1,74.2,71.7,78,67,47,30.22,30.09,12,2,12,0.00
2013-7-16,100.2,87.9,80.8,74.6,70.6,66.8,73,58,41,30.17,30.09,16,3,16,0.00
2013-7-17,101.7,87.7,82.6,76.3,71.3,68.6,68,59,43,30.16,30.04,11,2,11,0.00
2013-7-18,102.6,89.1,82.6,78.9,74.3,71.2,72,63,43,30.05,29.93,12,2,12,0.00
2013-7-19,102.0,88.8,84.0,82.2,76.9,74.6,78,68,53,29.95,29.78,68,4,68,0.00
2013-7-20,97.0,87.1,82.2,77.0,73.2,69.6,74,64,52,29.81,29.70,20,4,20,0.00
2013-7-21,94.5,83.1,79.2,71.4,69.1,65.5,75,63,45,29.95,29.80,9,2,9,0.00
2013-7-22,79.9,78.9,77.2,72.9,71.6,70.7,84,78,74,29.94,29.79,10,1,10,0.00
2013-7-23,88.3,79.8,75.4,76.7,73.1,71.1,90,80,67,29.79,29.54,16,3,16,0.00
2013-7-24,85.6,79.9,74.1,72.1,68.5,59.4,80,69,59,29.90,29.59,16,2,16,0.00
2013-7-25,74.1,68.4,66.7,60.6,57.6,54.2,79,69,60,30.02,29.89,28,6,28,0.00
2013-7-26,85.1,73.0,66.4,68.2,62.7,59.7,80,71,56,30.00,29.94,14,4,14,0.00
2013-7-27,85.8,77.8,70.9,71.2,67.2,64.4,80,70,60,30.04,29.94,16,3,16,0.00
2013-7-28,78.6,75.2,72.7,70.5,68.4,65.8,86,79,71,29.98,29.91,10,2,10,0.00
2013-7-29,91.6,78.7,73.8,74.1,67.7,57.7,87,71,49,30.07,29.92,15,2,15,0.00
2013-7-30,89.8,78.0,72.0,63.5,59.5,57.7,65,54,41,30.13,30.06,13,2,13,0.00
2013-7-31,85.8,76.7,72.1,65.3,61.6,58.5,71,60,47,30.12,30.02,13,2,13,0.00
2013-8-1,75.9,72.8,69.6,67.7,66.0,64.4,90,79,71,30.02,29.80,14,2,14,0.00
2013-8-2,88.0,76.3,70.3,69.8,66.8,63.6,89,74,52,29.89,29.76,19,3,19,0.00
2013-8-3,76.8,74.5,72.9,66.8,65.2,63.0,78,73,68,29.89,29.81,17,2,17,0.00
2013-8-4,86.7,75.7,70.2,66.1,60.9,54.0,77,61,45,29.92,29.81,14,2,14,0.00
2013-8-5,84.0,73.9,67.8,59.0,54.4,50.8,63,51,38,30.02,29.91,14,2,14,0.00
2013-8-6,88.0,75.5,70.0,62.3,59.8,58.0,71,59,40,30.10,30.00,13,2,13,0.00
2013-8-7,83.1,75.2,73.0,67.6,63.8,59.6,79,68,59,30.12,30.04,68,2,68,0.00
2013-8-8,81.5,74.3,70.3,74.0,69.7,65.9,90,86,77,30.06,29.98,19,4,19,0.00
2013-8-9,81.0,76.6,73.8,75.1,72.6,70.4,92,87,80,30.00,29.78,18,5,18,0.00
2013-8-10,81.7,77.7,73.0,73.0,66.4,62.3,87,69,55,30.02,29.82,6,2,6,0.00
2013-8-11,84.9,75.8,70.0,64.6,60.3,56.4,70,59,44,30.09,30.00,12,3,12,0.00
2013-8-12,78.4,75.6,73.2,70.3,68.4,64.6,84,78,70,30.02,29.90,6,1,6,0.00
2013-8-13,75.4,73.3,70.5,71.6,68.7,66.3,88,86,82,29.92,29.67,6,1,6,0.00
2013-8-14,77.5,70.3,63.7,68.9,57.8,52.2,88,66,51,30.00,29.70,14,4,14,0.00
2013-8-15,80.8,70.9,64.8,58.1,55.4,52.6,70,59,41,30.11,30.00,19,3,19,0.00
2013-8-16,84.6,73.0,66.9,62.9,58.4,54.2,73,61,42,30.17,30.09,12,2,12,0.00
2013-8-17,82.2,73.8,67.8,63.6,60.2,58.1,72,63,50,30.24,30.17,9,1,9,0.00
2013-8-18,76.5,72.9,70.9,63.0,61.9,59.3,75,69,61,30.23,30.09,5,1,5,0.00
2013-8-19,77.5,73.4,68.7,64.9,61.7,58.1,75,67,58,30.10,30.00,11,2,11,0.00
2013-8-20,86.0,77.5,71.4,69.3,66.3,63.4,78,69,55,30.10,30.01,10,2,10,0.00
2013-8-21,91.6,79.9,74.5,70.3,67.8,62.1,78,68,41,30.15,30.03,34,2,34,0.00
2013-8-22,83.3,77.2,75.0,74.4,69.8,67.8,84,78,73,30.04,29.85,34,2,34,0.00
2013-8-23,84.0,76.7,72.7,69.9,63.9,58.2,83,66,49,30.03,29.84,20,4,20,0.00
2013-8-24,84.0,73.6,67.8,60.9,58.3,54.7,68,59,45,30.32,30.18,34,3,34,0.00
2013-8-25,85.5,73.6,66.9,61.6,58.5,55.5,74,60,41,30.36,30.20,16,3,16,0.00
2013-8-26,81.7,75.4,70.3,67.1,62.1,57.2,72,63,58,30.21,29.89,13,4,13,0.00
2013-8-27,84.9,78.1,73.4,72.1,68.4,66.6,82,72,62,29.89,29.78,16,3,16,0.00
2013-8-28,84.7,78.6,75.4,70.6,69.3,67.9,79,73,61,29.87,29.82,8,1,8,0.00
2013-8-29,80.8,75.9,72.1,70.5,67.1,64.1,81,75,63,30.01,29.85,19,3,19,0.00
2013-8-30,81.5,75.7,71.2,70.5,67.0,63.2,79,75,66,30.01,29.84,16,3,16,0.00
2013-8-31,84.0,77.5,74.3,73.7,70.2,67.8,82,78,70,29.86,29.77,12,4,12,0.00
2013-9-1,83.5,77.8,75.0,75.1,72.0,69.9,87,82,74,29.84,29.78,10,3,10,0.00
2013-9-2,79.9,77.0,75.0,74.6,72.5,70.3,88,86,83,29.79,29.70,7,2,7,0.00
2013-9-3,81.1,77.1,74.3,72.7,67.6,59.4,87,74,56,29.86,29.69,10,2,10,0.00
2013-9-4,83.7,77.2,70.9,60.5,59.3,57.2,66,54,43,29.97,29.85,20,3,20,0.00
2013-9-5,81.3,74.4,68.7,62.2,56.4,46.6,67,54,41,30.11,29.89,14,3,14,0.00
2013-9-6,73.2,67.0,62.4,51.0,47.8,45.3,59,50,42,30.22,30.09,17,2,17,0.00
2013-9-7,78.6,68.7,61.7,58.1,52.9,49.4,67,58,41,30.10,29.87,14,3,14,0.00
2013-9-8,81.0,74.0,69.6,65.6,58.7,49.8,70,60,42,30.00,29.77,23,3,23,0.00
2013-9-9,72.7,68.4,63.5,59.6,51.7,46.0,71,56,46,30.22,30.13,10,3,10,0.00
2013-9-10,79.2,74.0,69.4,70.4,66.2,59.6,82,77,71,30.13,30.03,14,4,14,0.00
2013-9-11,89.4,79.6,74.7,76.6,71.5,68.5,85,77,65,30.09,29.96,22,4,22,0.00
2013-9-12,84.0,76.5,72.9,73.5,69.9,67.7,84,80,71,29.98,29.66,23,3,23,0.00
2013-9-13,75.9,71.9,64.9,67.9,62.4,52.3,85,72,61,29.81,29.60,13,1,13,0.00
2013-9-14,68.2,63.5,58.8,52.8,50.2,47.4,67,62,56,30.09,29.80,68,2,68,0.00
2013-9-15,73.0,63.8,57.7,56.9,50.5,46.4,71,62,47,30.18,30.06,12,2,12,0.00
2013-9-16,70.7,66.6,63.0,58.6,55.8,49.3,78,69,58,30.19,30.00,19,3,19,0.00
2013-9-17,67.8,60.4,54.5,49.7,43.0,39.2,62,53,44,30.40,30.20,28,4,28,0.00
2013-9-18,74.5,63.8,55.2,51.7,48.1,43.6,67,57,43,30.33,30.16,13,2,13,0.00
2013-9-19,78.4,66.2,58.8,56.5,52.7,48.7,70,63,45,30.17,30.05,13,2,13,0.00
2013-9-20,81.7,68.5,61.5,60.7,57.1,52.4,75,68,49,30.06,29.98,13,2,13,0.00
2013-9-21,75.9,68.6,62.8,68.4,62.4,54.7,89,81,74,29.99,29.65,68,4,68,0.00
2013-9-22,70.7,65.0,58.8,66.0,56.2,45.8,90,74,58,29.87,29.62,20,3,20,0.00
2013-9-23,68.7,59.1,55.2,50.2,46.4,44.0,68,63,51,30.01,29.87,14,2,14,0.00
2013-9-24,71.4,61.7,54.5,51.2,47.1,43.6,69,59,48,30.02,29.83,12,2,12,0.00
2013-9-25,73.9,64.2,57.9,53.9,49.9,46.5,70,60,46,29.92,29.84,14,2,14,0.00
2013-9-26,63.5,62.0,61.0,55.9,53.0,52.3,79,72,70,29.96,29.90,8,0,8,0.00
2013-11-5,57.0,54.8,53.4,41.9,40.7,39.6,65,59,54,30.59,30.47,11,1,11,0.00
2013-11-6,61.5,56.6,50.2,54.7,46.6,40.0,84,70,59,30.47,30.04,15,3,15,0.00
2013-11-7,63.1,58.2,47.7,58.0,52.6,36.4,86,82,65,30.04,29.72,34,5,34,0.00
2013-11-8,49.8,47.3,44.4,33.7,30.3,27.4,65,52,46,30.66,29.98,19,5,19,0.00
2013-11-9,50.5,47.4,43.3,36.4,30.5,27.2,59,52,45,30.27,29.98,17,4,17,0.00
2013-11-10,58.8,51.8,48.2,40.2,35.7,30.7,62,54,43,30.02,29.77,22,5,22,0.00
2013-11-11,54.0,50.6,45.9,36.0,31.3,27.2,51,47,44,30.18,29.94,17,5,17,0.00
2013-11-12,53.8,42.4,34.3,38.0,28.6,18.9,74,58,50,30.26,29.89,20,6,20,0.00
2013-11-13,41.9,36.6,31.6,21.7,18.7,16.4,57,49,39,30.34,30.25,12,4,12,0.00
2013-11-14,53.2,45.1,37.2,28.9,24.3,21.4,54,44,34,30.26,30.13,16,5,16,0.00
2013-11-15,55.4,50.6,44.4,41.5,34.7,27.0,64,55,43,30.24,30.14,11,2,11,0.00
2013-11-16,57.9,53.2,50.7,47.5,42.5,36.3,74,67,57,30.31,30.20,12,1,12,0.00
2013-11-17,61.5,57.4,51.4,57.3,52.1,43.1,89,82,73,30.25,29.77,9,2,9,0.00
2013-11-18,64.0,58.9,52.9,56.5,46.6,31.8,92,66,42,29.78,29.58,68,7,68,0.00
2013-11-19,54.5,47.0,42.4,33.7,28.8,25.3,53,49,42,30.32,29.74,26,8,26,0.00
2013-11-20,47.5,42.3,37.6,25.6,22.7,20.1,53,46,37,30.60,30.32,20,4,20,0.00
2013-11-21,52.9,47.1,38.8,42.0,32.8,23.2,67,58,50,30.61,30.38,34,3,34,0.00
2013-11-22,56.8,54.2,52.2,50.2,46.9,41.3,84,76,66,30.37,29.86,15,3,15,0.00
2013-11-23,54.5,45.2,34.5,48.8,29.3,15.2,81,55,39,30.00,29.86,26,8,26,0.00
2013-11-24,34.5,29.1,26.2,15.2,7.9,5.0,45,41,33,30.35,29.97,34,10,34,0.00
2013-11-25,37.8,32.2,26.2,18.7,13.8,7.5,50,46,42,30.48,30.33,42,6,42,0.00
2013-11-26,52.0,41.2,36.0,48.8,27.8,18.7,89,60,47,30.34,29.75,24,4,24,0.00
2013-11-27,60.1,49.6,36.7,58.1,45.9,28.2,93,87,71,29.75,29.29,103,15,103,0.00
2013-11-28,37.0,34.8,32.2,28.2,21.3,18.5,71,58,49,30.46,29.70,68,7,68,0.00
2013-11-29,41.2,37.6,34.9,25.8,23.4,20.7,62,56,52,30.72,30.45,12,3,12,0.00
2013-11-30,41.7,37.3,32.7,31.2,24.1,19.8,66,59,48,30.75,30.34,34,3,34,0.00
2013-12-1,50.9,45.8,40.3,38.8,35.0,30.6,73,66,59,30.34,29.99,34,2,34,0.00
2013-12-2,49.5,46.0,42.1,38.9,36.7,33.8,73,70,59,29.95,29.85,9,2,9,0.00
2013-12-3,49.9,44.5,40.5,36.7,34.8,32.6,76,69,59,29.98,29.84,34,2,34,0.00
2013-12-4,50.4,45.5,40.5,41.1,36.1,31.6,77,69,60,30.12,29.98,7,2,7,0.00
2013-12-5,52.9,51.2,47.7,49.1,46.8,40.9,90,85,77,30.10,29.92,34,3,34,0.00
2013-12-6,52.9,47.1,38.4,50.3,43.2,33.5,91,86,81,30.12,29.84,68,6,68,0.00
2013-12-7,39.4,37.3,33.3,33.8,28.9,20.6,83,72,59,30.50,30.06,68,5,68,0.00
2013-12-8,34.9,32.9,30.8,25.6,22.0,18.9,79,64,56,30.59,30.35,34,4,34,0.00
2013-12-9,40.5,36.7,31.3,36.6,32.1,25.9,86,84,80,30.36,29.92,68,6,68,0.00
2013-12-10,36.9,34.0,29.2,31.6,28.2,18.9,84,79,66,30.11,29.81,68,4,68,0.00
2013-12-11,31.7,29.3,26.1,18.9,17.5,15.3,66,61,57,30.32,30.11,20,7,20,0.00
2013-12-12,28.5,25.4,23.1,16.8,11.1,7.2,63,54,49,30.34,30.15,34,6,34,0.00
2013-12-13,33.3,28.7,23.2,20.5,13.4,7.2,60,52,50,30.31,30.11,68,5,68,0.00
2013-12-14,37.8,28.2,22.9,34.6,20.0,15.6,89,71,60,30.49,29.73,34,7,34,0.00
2013-12-15,42.1,35.5,31.5,39.6,29.6,21.4,91,79,64,29.82,29.41,68,9,68,0.00
2013-12-16,32.1,29.3,26.8,22.3,15.7,12.3,67,57,49,30.21,29.81,22,6,22,0.00
2013-12-26,34.2,33.8,33.3,23.7,23.4,22.9,67,65,64,30.27,30.20,8,3,8,0.00
2013-12-27,38.9,35.5,31.0,24.7,22.2,19.9,66,58,49,30.35,30.25,17,3,17,0.00
2013-12-28,50.2,41.5,33.1,31.2,27.7,22.1,67,58,48,30.28,30.04,20,4,20,0.00
2013-12-29,47.0,43.0,40.3,43.6,34.3,28.1,88,72,55,30.06,29.32,34,5,34,0.00
2013-12-30,43.0,36.4,25.9,36.0,27.4,12.8,82,70,57,30.17,29.65,19,5,19,0.00
2013-12-31,33.3,28.8,25.2,20.0,15.5,9.7,62,57,51,30.27,30.04,17,4,17,0.00
2014-1-1,34.2,29.9,24.3,20.6,15.2,8.6,57,54,50,30.41,30.23,17,3,17,0.00
2014-1-2,32.2,27.5,19.5,22.4,19.5,13.6,79,72,56,30.24,29.61,68,10,68,0.00